sensor_id;sensor_type;location;lat;lon;timestamp;temperature;humidity
31975;DHT22;18500;43.618;1.474;2024-03-08T06:26:52;11.10;1.00
31975;DHT22;18500;43.618;1.474;2024-03-08T06:29:18;11.10;1.00
31975;DHT22;18500;43.618;1.474;2024-03-08T06:31:44;11.10;1.00
31975;DHT22;18500;43.618;1.474;2024-03-08T06:34:10;11.10;1.00
31975;DHT22;18500;43.618;1.474;2024-03-08T06:36:36;11.10;1.00
31975;DHT22;18500;43.618;1.474;2024-03-08T06:39:03;11.10;1.00
31975;DHT22;18500;43.618;1.474;2024-03-08T06:41:35;11.10;1.00
31975;DHT22;18500;43.618;1.474;2024-03-08T06:44:01;11.20;1.00
31975;DHT22;18500;43.618;1.474;2024-03-08T06:46:27;11.20;1.00
31975;DHT22;18500;43.618;1.474;2024-03-08T06:48:53;11.10;1.00
31975;DHT22;18500;43.618;1.474;2024-03-08T06:51:19;11.10;1.00
31975;DHT22;18500;43.618;1.474;2024-03-08T06:53:45;11.10;1.00
31975;DHT22;18500;43.618;1.474;2024-03-08T06:56:10;11.10;1.00
31975;DHT22;18500;43.618;1.474;2024-03-08T06:58:36;11.10;1.00
31975;DHT22;18500;43.618;1.474;2024-03-08T07:01:03;11.10;1.00
31975;DHT22;18500;43.618;1.474;2024-03-08T07:03:33;11.10;1.00
31975;DHT22;18500;43.618;1.474;2024-03-08T07:05:58;11.10;1.00
31975;DHT22;18500;43.618;1.474;2024-03-08T07:08:25;11.10;1.00
31975;DHT22;18500;43.618;1.474;2024-03-08T07:10:52;11.10;1.00
31975;DHT22;18500;43.618;1.474;2024-03-08T07:13:18;11.10;1.00
31975;DHT22;18500;43.618;1.474;2024-03-08T07:15:44;11.10;1.00
31975;DHT22;18500;43.618;1.474;2024-03-08T07:18:11;11.10;1.00
31975;DHT22;18500;43.618;1.474;2024-03-08T07:20:40;11.10;1.00
31975;DHT22;18500;43.618;1.474;2024-03-08T07:23:06;11.00;1.00
31975;DHT22;18500;43.618;1.474;2024-03-08T07:25:31;11.00;1.00
31975;DHT22;18500;43.618;1.474;2024-03-08T07:27:57;11.00;1.00
31975;DHT22;18500;43.618;1.474;2024-03-08T07:30:24;10.90;1.00
31975;DHT22;18500;43.618;1.474;2024-03-08T07:33:09;10.90;1.00
31975;DHT22;18500;43.618;1.474;2024-03-08T07:35:37;10.80;1.00
31975;DHT22;18500;43.618;1.474;2024-03-08T07:38:04;10.80;1.00
31975;DHT22;18500;43.618;1.474;2024-03-08T07:40:40;10.80;1.00
31975;DHT22;18500;43.618;1.474;2024-03-08T07:43:13;10.70;1.00
31975;DHT22;18500;43.618;1.474;2024-03-08T07:45:39;10.60;1.00
31975;DHT22;18500;43.618;1.474;2024-03-08T07:48:05;10.60;1.00
31975;DHT22;18500;43.618;1.474;2024-03-08T07:50:38;10.50;1.00
31975;DHT22;18500;43.618;1.474;2024-03-08T07:53:05;10.50;1.00
31975;DHT22;18500;43.618;1.474;2024-03-08T07:55:34;10.50;1.00
31975;DHT22;18500;43.618;1.474;2024-03-08T07:58:01;10.50;1.00
31975;DHT22;18500;43.618;1.474;2024-03-08T08:00:26;10.50;1.00
31975;DHT22;18500;43.618;1.474;2024-03-08T08:02:53;10.60;1.00
31975;DHT22;18500;43.618;1.474;2024-03-08T08:05:19;10.50;1.00
31975;DHT22;18500;43.618;1.474;2024-03-08T08:07:45;10.50;1.00
31975;DHT22;18500;43.618;1.474;2024-03-08T08:10:14;10.40;1.00
31975;DHT22;18500;43.618;1.474;2024-03-08T08:12:44;10.40;1.00
31975;DHT22;18500;43.618;1.474;2024-03-08T08:15:10;10.40;1.00
31975;DHT22;18500;43.618;1.474;2024-03-08T08:17:36;10.40;1.00
31975;DHT22;18500;43.618;1.474;2024-03-08T08:20:02;10.40;1.00
31975;DHT22;18500;43.618;1.474;2024-03-08T08:22:30;10.40;1.00
31975;DHT22;18500;43.618;1.474;2024-03-08T08:24:56;10.40;1.00
31975;DHT22;18500;43.618;1.474;2024-03-08T08:27:22;10.40;1.00
31975;DHT22;18500;43.618;1.474;2024-03-08T08:29:47;10.50;1.00
31975;DHT22;18500;43.618;1.474;2024-03-08T08:32:15;10.40;1.00
31975;DHT22;18500;43.618;1.474;2024-03-08T08:34:40;10.50;1.00
31975;DHT22;18500;43.618;1.474;2024-03-08T08:37:07;10.50;1.00
31975;DHT22;18500;43.618;1.474;2024-03-08T08:39:35;10.50;1.00
31975;DHT22;18500;43.618;1.474;2024-03-08T08:42:00;10.60;1.00
31975;DHT22;18500;43.618;1.474;2024-03-08T08:44:28;10.60;1.00
31975;DHT22;18500;43.618;1.474;2024-03-08T08:46:53;10.50;1.00
31975;DHT22;18500;43.618;1.474;2024-03-08T08:49:19;10.40;1.00
31975;DHT22;18500;43.618;1.474;2024-03-08T08:51:49;10.40;1.00
31975;DHT22;18500;43.618;1.474;2024-03-08T08:54:15;10.40;1.00
31975;DHT22;18500;43.618;1.474;2024-03-08T08:56:42;10.30;1.00
31975;DHT22;18500;43.618;1.474;2024-03-08T08:59:10;10.30;1.00
31975;DHT22;18500;43.618;1.474;2024-03-08T09:01:39;10.10;99.90
31975;DHT22;18500;43.618;1.474;2024-03-08T09:04:05;10.00;1.00
31975;DHT22;18500;43.618;1.474;2024-03-08T09:06:31;10.00;98.90
31975;DHT22;18500;43.618;1.474;2024-03-08T09:08:57;10.10;99.90
31975;DHT22;18500;43.618;1.474;2024-03-08T09:11:23;10.20;99.90
31975;DHT22;18500;43.618;1.474;2024-03-08T09:13:50;10.50;99.90
31975;DHT22;18500;43.618;1.474;2024-03-08T09:16:16;10.30;99.90
31975;DHT22;18500;43.618;1.474;2024-03-08T09:18:42;10.00;99.90
31975;DHT22;18500;43.618;1.474;2024-03-08T09:21:07;9.60;1.00
31975;DHT22;18500;43.618;1.474;2024-03-08T09:23:35;9.60;1.00
31975;DHT22;18500;43.618;1.474;2024-03-08T09:26:01;9.50;99.90
31975;DHT22;18500;43.618;1.474;2024-03-08T09:28:28;9.20;99.90
31975;DHT22;18500;43.618;1.474;2024-03-08T09:30:54;9.20;99.90
31975;DHT22;18500;43.618;1.474;2024-03-08T09:33:20;9.20;99.90
31975;DHT22;18500;43.618;1.474;2024-03-08T09:35:46;9.10;99.90
31975;DHT22;18500;43.618;1.474;2024-03-08T09:38:14;9.20;99.90
31975;DHT22;18500;43.618;1.474;2024-03-08T09:40:43;9.10;1.00
31975;DHT22;18500;43.618;1.474;2024-03-08T09:43:12;9.20;99.90
31975;DHT22;18500;43.618;1.474;2024-03-08T09:45:38;9.10;99.90
31975;DHT22;18500;43.618;1.474;2024-03-08T09:48:10;9.20;1.70
31975;DHT22;18500;43.618;1.474;2024-03-08T09:50:42;9.10;99.90
31975;DHT22;18500;43.618;1.474;2024-03-08T09:53:08;8.90;99.90
31975;DHT22;18500;43.618;1.474;2024-03-08T09:55:38;9.00;99.90
31975;DHT22;18500;43.618;1.474;2024-03-08T09:58:08;9.00;1.00
31975;DHT22;18500;43.618;1.474;2024-03-08T10:00:56;8.80;1.00
31975;DHT22;18500;43.618;1.474;2024-03-08T10:03:23;8.90;99.90
31975;DHT22;18500;43.618;1.474;2024-03-08T10:05:49;8.70;1.00
31975;DHT22;18500;43.618;1.474;2024-03-08T10:08:15;8.70;99.90
31975;DHT22;18500;43.618;1.474;2024-03-08T10:10:41;8.60;1.00
31975;DHT22;18500;43.618;1.474;2024-03-08T10:13:10;8.50;1.00
31975;DHT22;18500;43.618;1.474;2024-03-08T10:15:39;8.60;99.90
31975;DHT22;18500;43.618;1.474;2024-03-08T10:18:05;8.70;99.90
31975;DHT22;18500;43.618;1.474;2024-03-08T10:20:32;8.90;99.90
31975;DHT22;18500;43.618;1.474;2024-03-08T10:23:03;8.70;99.90
31975;DHT22;18500;43.618;1.474;2024-03-08T10:25:31;9.10;99.90
31975;DHT22;18500;43.618;1.474;2024-03-08T10:27:56;9.30;99.90
31975;DHT22;18500;43.618;1.474;2024-03-08T10:30:22;9.30;99.90
31975;DHT22;18500;43.618;1.474;2024-03-08T10:32:49;9.10;1.00
31975;DHT22;18500;43.618;1.474;2024-03-08T10:35:15;9.10;1.00
31975;DHT22;18500;43.618;1.474;2024-03-08T10:37:46;8.90;1.00
31975;DHT22;18500;43.618;1.474;2024-03-08T10:40:19;9.10;1.00
31975;DHT22;18500;43.618;1.474;2024-03-08T10:42:52;9.30;35.00
31975;DHT22;18500;43.618;1.474;2024-03-08T10:50:42;9.40;99.90
31975;DHT22;18500;43.618;1.474;2024-03-08T10:53:11;9.60;99.90
31975;DHT22;18500;43.618;1.474;2024-03-08T10:55:40;9.70;99.90
31975;DHT22;18500;43.618;1.474;2024-03-08T10:58:09;9.70;99.90
31975;DHT22;18500;43.618;1.474;2024-03-08T11:00:35;10.00;1.00
31975;DHT22;18500;43.618;1.474;2024-03-08T11:03:03;10.10;1.00
31975;DHT22;18500;43.618;1.474;2024-03-08T11:05:38;10.30;1.00
31975;DHT22;18500;43.618;1.474;2024-03-08T11:08:18;10.70;1.00
31975;DHT22;18500;43.618;1.474;2024-03-08T11:10:54;11.00;99.90
31975;DHT22;18500;43.618;1.474;2024-03-08T11:13:34;10.80;99.90
31975;DHT22;18500;43.618;1.474;2024-03-08T11:16:01;10.30;99.90
31975;DHT22;18500;43.618;1.474;2024-03-08T11:18:33;10.40;99.90
31975;DHT22;18500;43.618;1.474;2024-03-08T11:21:02;10.50;99.90
31975;DHT22;18500;43.618;1.474;2024-03-08T11:23:32;10.30;99.90
31975;DHT22;18500;43.618;1.474;2024-03-08T11:25:59;10.50;99.90
31975;DHT22;18500;43.618;1.474;2024-03-08T11:28:25;10.70;99.90
31975;DHT22;18500;43.618;1.474;2024-03-08T11:33:28;10.40;99.90
31975;DHT22;18500;43.618;1.474;2024-03-08T11:36:13;10.80;99.90
31975;DHT22;18500;43.618;1.474;2024-03-08T11:38:48;11.00;99.90
31975;DHT22;18500;43.618;1.474;2024-03-08T11:41:18;11.10;99.90
31975;DHT22;18500;43.618;1.474;2024-03-08T11:43:48;11.10;99.90
31975;DHT22;18500;43.618;1.474;2024-03-08T11:46:16;11.10;99.90
31975;DHT22;18500;43.618;1.474;2024-03-08T11:48:42;11.00;99.90
31975;DHT22;18500;43.618;1.474;2024-03-08T11:51:12;10.80;99.90
31975;DHT22;18500;43.618;1.474;2024-03-08T11:53:39;10.60;99.90
31975;DHT22;18500;43.618;1.474;2024-03-08T11:56:10;10.70;99.90
31975;DHT22;18500;43.618;1.474;2024-03-08T11:58:37;10.60;99.90
31975;DHT22;18500;43.618;1.474;2024-03-08T12:03:31;10.40;99.90
31975;DHT22;18500;43.618;1.474;2024-03-08T12:06:02;10.10;99.90
31975;DHT22;18500;43.618;1.474;2024-03-08T12:08:30;10.00;99.90
31975;DHT22;18500;43.618;1.474;2024-03-08T12:10:57;10.20;99.90
31975;DHT22;18500;43.618;1.474;2024-03-08T12:13:27;10.20;99.90
31975;DHT22;18500;43.618;1.474;2024-03-08T12:16:00;10.50;99.90
31975;DHT22;18500;43.618;1.474;2024-03-08T12:18:33;10.40;1.00
31975;DHT22;18500;43.618;1.474;2024-03-08T12:21:09;10.40;1.00
31975;DHT22;18500;43.618;1.474;2024-03-08T12:23:36;10.40;1.00
31975;DHT22;18500;43.618;1.474;2024-03-08T12:26:24;10.50;1.00
31975;DHT22;18500;43.618;1.474;2024-03-08T12:28:51;10.60;61.60
31975;DHT22;18500;43.618;1.474;2024-03-08T12:31:17;10.60;99.90
31975;DHT22;18500;43.618;1.474;2024-03-08T12:36:15;10.70;99.90
31975;DHT22;18500;43.618;1.474;2024-03-08T12:38:44;10.80;99.90
31975;DHT22;18500;43.618;1.474;2024-03-08T12:41:13;11.00;99.90
31975;DHT22;18500;43.618;1.474;2024-03-08T12:43:39;11.60;99.90
31975;DHT22;18500;43.618;1.474;2024-03-08T12:46:05;13.30;99.90
31975;DHT22;18500;43.618;1.474;2024-03-08T12:48:34;14.90;99.90
31975;DHT22;18500;43.618;1.474;2024-03-08T12:51:01;15.90;99.90
31975;DHT22;18500;43.618;1.474;2024-03-08T12:53:26;14.80;99.90
31975;DHT22;18500;43.618;1.474;2024-03-08T12:55:54;16.00;99.90
31975;DHT22;18500;43.618;1.474;2024-03-08T12:58:22;16.10;99.90
31975;DHT22;18500;43.618;1.474;2024-03-08T13:00:47;15.50;99.90
31975;DHT22;18500;43.618;1.474;2024-03-08T13:03:13;15.90;99.90
31975;DHT22;18500;43.618;1.474;2024-03-08T13:05:39;15.90;99.90
31975;DHT22;18500;43.618;1.474;2024-03-08T13:08:06;17.10;99.90
31975;DHT22;18500;43.618;1.474;2024-03-08T13:10:38;16.20;99.90
31975;DHT22;18500;43.618;1.474;2024-03-08T13:13:03;16.90;99.90
31975;DHT22;18500;43.618;1.474;2024-03-08T13:15:30;16.90;52.90
31975;DHT22;18500;43.618;1.474;2024-03-08T13:17:56;16.60;1.00
31975;DHT22;18500;43.618;1.474;2024-03-08T13:20:25;17.50;99.90
31975;DHT22;18500;43.618;1.474;2024-03-08T13:22:53;18.80;1.00
31975;DHT22;18500;43.618;1.474;2024-03-08T13:25:19;17.30;99.90
31975;DHT22;18500;43.618;1.474;2024-03-08T13:27:45;18.60;99.90
31975;DHT22;18500;43.618;1.474;2024-03-08T13:30:12;18.30;1.00
31975;DHT22;18500;43.618;1.474;2024-03-08T13:32:44;17.90;99.90
31975;DHT22;18500;43.618;1.474;2024-03-08T13:35:10;18.70;99.90
31975;DHT22;18500;43.618;1.474;2024-03-08T13:37:43;18.70;1.00
31975;DHT22;18500;43.618;1.474;2024-03-08T13:40:09;18.10;99.90
31975;DHT22;18500;43.618;1.474;2024-03-08T13:42:42;16.60;19.70
31975;DHT22;18500;43.618;1.474;2024-03-08T13:45:09;17.20;1.00
31975;DHT22;18500;43.618;1.474;2024-03-08T13:47:37;17.00;1.00
31975;DHT22;18500;43.618;1.474;2024-03-08T13:50:03;16.30;1.00
31975;DHT22;18500;43.618;1.474;2024-03-08T13:52:29;16.70;1.00
31975;DHT22;18500;43.618;1.474;2024-03-08T13:54:55;15.80;1.00
31975;DHT22;18500;43.618;1.474;2024-03-08T13:57:21;15.10;1.00
31975;DHT22;18500;43.618;1.474;2024-03-08T13:59:48;14.70;1.00
31975;DHT22;18500;43.618;1.474;2024-03-08T14:02:16;14.60;1.00
31975;DHT22;18500;43.618;1.474;2024-03-08T14:04:42;14.60;1.00
31975;DHT22;18500;43.618;1.474;2024-03-08T14:07:08;14.70;1.00
31975;DHT22;18500;43.618;1.474;2024-03-08T14:09:36;15.00;1.00
31975;DHT22;18500;43.618;1.474;2024-03-08T14:12:03;14.90;1.00
31975;DHT22;18500;43.618;1.474;2024-03-08T14:14:33;14.80;1.00
31975;DHT22;18500;43.618;1.474;2024-03-08T14:17:03;14.70;1.00
31975;DHT22;18500;43.618;1.474;2024-03-08T14:19:29;14.20;1.00
31975;DHT22;18500;43.618;1.474;2024-03-08T14:21:59;13.90;1.00
31975;DHT22;18500;43.618;1.474;2024-03-08T14:24:25;13.80;1.00
31975;DHT22;18500;43.618;1.474;2024-03-08T14:26:51;13.70;1.00
31975;DHT22;18500;43.618;1.474;2024-03-08T14:29:17;13.60;1.00
31975;DHT22;18500;43.618;1.474;2024-03-08T14:31:46;13.40;1.00
31975;DHT22;18500;43.618;1.474;2024-03-08T14:34:11;13.20;1.00
31975;DHT22;18500;43.618;1.474;2024-03-08T14:36:40;13.00;1.00
31975;DHT22;18500;43.618;1.474;2024-03-08T14:39:05;13.00;1.00
31975;DHT22;18500;43.618;1.474;2024-03-08T14:41:33;13.00;1.00
31975;DHT22;18500;43.618;1.474;2024-03-08T14:43:58;13.00;1.00
31975;DHT22;18500;43.618;1.474;2024-03-08T14:46:25;13.20;1.00
31975;DHT22;18500;43.618;1.474;2024-03-08T14:48:55;13.30;1.00
31975;DHT22;18500;43.618;1.474;2024-03-08T14:51:22;13.80;1.00
31975;DHT22;18500;43.618;1.474;2024-03-08T14:53:50;14.30;1.00
31975;DHT22;18500;43.618;1.474;2024-03-08T14:56:16;14.70;1.00
31975;DHT22;18500;43.618;1.474;2024-03-08T14:58:50;14.60;1.00
31975;DHT22;18500;43.618;1.474;2024-03-08T15:01:17;14.50;1.00
31975;DHT22;18500;43.618;1.474;2024-03-08T15:03:47;14.50;1.00
31975;DHT22;18500;43.618;1.474;2024-03-08T15:06:13;14.30;1.00
31975;DHT22;18500;43.618;1.474;2024-03-08T15:08:41;14.10;1.00
31975;DHT22;18500;43.618;1.474;2024-03-08T15:11:07;13.90;1.00
31975;DHT22;18500;43.618;1.474;2024-03-08T15:13:34;14.20;1.00
31975;DHT22;18500;43.618;1.474;2024-03-08T15:16:09;14.70;1.00
31975;DHT22;18500;43.618;1.474;2024-03-08T15:18:42;14.70;1.00
31975;DHT22;18500;43.618;1.474;2024-03-08T15:21:12;14.60;1.00
31975;DHT22;18500;43.618;1.474;2024-03-08T15:23:38;14.50;1.00
31975;DHT22;18500;43.618;1.474;2024-03-08T15:26:11;14.20;1.00
31975;DHT22;18500;43.618;1.474;2024-03-08T15:28:37;14.00;1.00
31975;DHT22;18500;43.618;1.474;2024-03-08T15:31:04;14.30;1.00
31975;DHT22;18500;43.618;1.474;2024-03-08T15:33:34;17.30;1.00
31975;DHT22;18500;43.618;1.474;2024-03-08T15:36:00;16.50;1.00
31975;DHT22;18500;43.618;1.474;2024-03-08T15:38:35;14.80;1.00
31975;DHT22;18500;43.618;1.474;2024-03-08T15:41:01;14.00;1.00
31975;DHT22;18500;43.618;1.474;2024-03-08T15:43:27;13.70;1.00
31975;DHT22;18500;43.618;1.474;2024-03-08T15:45:52;13.30;1.00
31975;DHT22;18500;43.618;1.474;2024-03-08T15:48:20;13.20;1.00
31975;DHT22;18500;43.618;1.474;2024-03-08T15:50:47;13.10;1.00
31975;DHT22;18500;43.618;1.474;2024-03-08T15:53:12;13.10;1.00
31975;DHT22;18500;43.618;1.474;2024-03-08T15:55:40;12.90;1.00
31975;DHT22;18500;43.618;1.474;2024-03-08T15:58:06;12.80;1.00
31975;DHT22;18500;43.618;1.474;2024-03-08T16:00:32;12.70;1.00
31975;DHT22;18500;43.618;1.474;2024-03-08T16:03:14;12.60;1.00
31975;DHT22;18500;43.618;1.474;2024-03-08T16:05:41;12.70;1.00
31975;DHT22;18500;43.618;1.474;2024-03-08T16:08:14;12.80;1.00
31975;DHT22;18500;43.618;1.474;2024-03-08T16:10:53;12.80;1.00
31975;DHT22;18500;43.618;1.474;2024-03-08T16:13:22;12.90;1.00
31975;DHT22;18500;43.618;1.474;2024-03-08T16:15:49;12.90;1.00
31975;DHT22;18500;43.618;1.474;2024-03-08T16:18:15;12.90;1.00
31975;DHT22;18500;43.618;1.474;2024-03-08T16:20:41;12.90;1.00
31975;DHT22;18500;43.618;1.474;2024-03-08T16:23:13;12.90;1.00
31975;DHT22;18500;43.618;1.474;2024-03-08T16:25:42;12.80;1.00
31975;DHT22;18500;43.618;1.474;2024-03-08T16:28:08;12.80;1.00
31975;DHT22;18500;43.618;1.474;2024-03-08T16:30:43;12.70;1.00
31975;DHT22;18500;43.618;1.474;2024-03-08T16:33:16;12.60;1.00
31975;DHT22;18500;43.618;1.474;2024-03-08T16:35:43;12.50;1.00
31975;DHT22;18500;43.618;1.474;2024-03-08T16:38:13;12.50;1.00
31975;DHT22;18500;43.618;1.474;2024-03-08T16:40:40;12.40;1.00
31975;DHT22;18500;43.618;1.474;2024-03-08T16:43:06;12.40;1.00
31975;DHT22;18500;43.618;1.474;2024-03-08T16:45:39;12.40;1.00
31975;DHT22;18500;43.618;1.474;2024-03-08T16:48:06;12.40;1.00
31975;DHT22;18500;43.618;1.474;2024-03-08T16:50:32;12.40;1.00
31975;DHT22;18500;43.618;1.474;2024-03-08T16:52:59;12.40;1.00
31975;DHT22;18500;43.618;1.474;2024-03-08T16:55:25;12.30;1.00
31975;DHT22;18500;43.618;1.474;2024-03-08T16:57:51;12.20;1.00
31975;DHT22;18500;43.618;1.474;2024-03-08T17:00:21;12.20;1.00
31975;DHT22;18500;43.618;1.474;2024-03-08T17:02:58;12.10;1.00
31975;DHT22;18500;43.618;1.474;2024-03-08T17:05:24;12.10;1.00
31975;DHT22;18500;43.618;1.474;2024-03-08T17:07:55;12.10;1.00
31975;DHT22;18500;43.618;1.474;2024-03-08T17:10:29;12.10;1.00
31975;DHT22;18500;43.618;1.474;2024-03-08T17:12:56;12.10;1.00
31975;DHT22;18500;43.618;1.474;2024-03-08T17:15:25;12.10;1.00
31975;DHT22;18500;43.618;1.474;2024-03-08T17:17:53;12.00;1.00
31975;DHT22;18500;43.618;1.474;2024-03-08T17:20:20;11.90;1.00
31975;DHT22;18500;43.618;1.474;2024-03-08T17:22:47;11.90;1.00
31975;DHT22;18500;43.618;1.474;2024-03-08T17:25:20;11.80;1.00
31975;DHT22;18500;43.618;1.474;2024-03-08T17:27:48;11.90;1.00
31975;DHT22;18500;43.618;1.474;2024-03-08T17:30:18;11.90;1.00
31975;DHT22;18500;43.618;1.474;2024-03-08T17:32:56;11.80;1.00
31975;DHT22;18500;43.618;1.474;2024-03-08T17:35:24;11.70;1.00
31975;DHT22;18500;43.618;1.474;2024-03-08T17:37:52;11.70;1.00
31975;DHT22;18500;43.618;1.474;2024-03-08T17:40:22;11.70;1.00
31975;DHT22;18500;43.618;1.474;2024-03-08T17:42:55;11.60;1.00
31975;DHT22;18500;43.618;1.474;2024-03-08T17:45:23;11.40;1.00
31975;DHT22;18500;43.618;1.474;2024-03-08T17:47:52;11.30;1.00
31975;DHT22;18500;43.618;1.474;2024-03-08T17:50:18;11.10;1.00
31975;DHT22;18500;43.618;1.474;2024-03-08T17:52:45;11.00;1.00
31975;DHT22;18500;43.618;1.474;2024-03-08T17:55:12;11.10;1.00
31975;DHT22;18500;43.618;1.474;2024-03-08T17:57:43;11.00;1.00
31975;DHT22;18500;43.618;1.474;2024-03-08T18:00:11;11.00;1.00
31975;DHT22;18500;43.618;1.474;2024-03-08T18:02:47;11.50;1.00
31975;DHT22;18500;43.618;1.474;2024-03-08T18:05:17;11.70;1.00
31975;DHT22;18500;43.618;1.474;2024-03-08T18:07:43;11.80;1.00
31975;DHT22;18500;43.618;1.474;2024-03-08T18:10:10;11.70;1.00
31975;DHT22;18500;43.618;1.474;2024-03-08T18:12:45;11.50;1.00
31975;DHT22;18500;43.618;1.474;2024-03-08T18:15:12;11.50;1.00
31975;DHT22;18500;43.618;1.474;2024-03-08T18:17:38;11.10;99.90
31975;DHT22;18500;43.618;1.474;2024-03-08T18:20:06;10.90;1.00
31975;DHT22;18500;43.618;1.474;2024-03-08T18:22:39;11.10;1.00
31975;DHT22;18500;43.618;1.474;2024-03-08T18:25:05;10.90;99.90
31975;DHT22;18500;43.618;1.474;2024-03-08T18:27:37;10.70;99.90
31975;DHT22;18500;43.618;1.474;2024-03-08T18:30:04;10.50;99.90
31975;DHT22;18500;43.618;1.474;2024-03-08T18:32:30;10.50;99.90
31975;DHT22;18500;43.618;1.474;2024-03-08T18:34:56;10.40;1.00
31975;DHT22;18500;43.618;1.474;2024-03-08T18:37:22;10.10;99.90
31975;DHT22;18500;43.618;1.474;2024-03-08T18:39:48;9.90;1.00
31975;DHT22;18500;43.618;1.474;2024-03-08T18:42:13;10.00;90.30
31975;DHT22;18500;43.618;1.474;2024-03-08T18:44:39;10.00;99.90
31975;DHT22;18500;43.618;1.474;2024-03-08T18:47:05;10.00;99.90
31975;DHT22;18500;43.618;1.474;2024-03-08T18:49:31;10.00;1.00
31975;DHT22;18500;43.618;1.474;2024-03-08T18:51:56;9.90;1.00
31975;DHT22;18500;43.618;1.474;2024-03-08T18:54:25;9.80;1.00
31975;DHT22;18500;43.618;1.474;2024-03-08T18:56:52;9.90;1.00
31975;DHT22;18500;43.618;1.474;2024-03-08T18:59:20;9.80;1.00
31975;DHT22;18500;43.618;1.474;2024-03-08T19:01:45;9.60;49.10
31975;DHT22;18500;43.618;1.474;2024-03-08T19:04:13;9.60;99.90
31975;DHT22;18500;43.618;1.474;2024-03-08T19:06:40;9.60;99.90
31975;DHT22;18500;43.618;1.474;2024-03-08T19:09:05;9.70;99.90
31975;DHT22;18500;43.618;1.474;2024-03-08T19:11:35;9.70;99.90
31975;DHT22;18500;43.618;1.474;2024-03-08T19:14:02;9.60;99.90
31975;DHT22;18500;43.618;1.474;2024-03-08T19:16:27;9.70;99.90
31975;DHT22;18500;43.618;1.474;2024-03-08T19:18:54;9.60;99.90
31975;DHT22;18500;43.618;1.474;2024-03-08T19:21:20;9.70;99.90
31975;DHT22;18500;43.618;1.474;2024-03-08T19:23:46;9.60;99.90
31975;DHT22;18500;43.618;1.474;2024-03-08T19:26:13;9.60;99.90
31975;DHT22;18500;43.618;1.474;2024-03-08T19:28:39;9.50;99.90
31975;DHT22;18500;43.618;1.474;2024-03-08T19:31:05;9.50;99.90
31975;DHT22;18500;43.618;1.474;2024-03-08T19:33:31;9.40;99.90
31975;DHT22;18500;43.618;1.474;2024-03-08T19:35:57;9.30;99.90
31975;DHT22;18500;43.618;1.474;2024-03-08T19:38:23;9.30;99.90
31975;DHT22;18500;43.618;1.474;2024-03-08T19:40:48;9.20;99.90
31975;DHT22;18500;43.618;1.474;2024-03-08T19:43:16;9.10;99.90
31975;DHT22;18500;43.618;1.474;2024-03-08T19:45:42;9.00;99.90
31975;DHT22;18500;43.618;1.474;2024-03-08T19:48:08;8.90;99.90
31975;DHT22;18500;43.618;1.474;2024-03-08T19:50:45;8.90;99.90
31975;DHT22;18500;43.618;1.474;2024-03-08T19:53:11;8.90;99.90
31975;DHT22;18500;43.618;1.474;2024-03-08T19:55:39;9.00;99.90
31975;DHT22;18500;43.618;1.474;2024-03-08T19:58:05;9.00;99.90
31975;DHT22;18500;43.618;1.474;2024-03-08T20:00:37;8.90;99.90
31975;DHT22;18500;43.618;1.474;2024-03-08T20:03:04;8.80;99.90
31975;DHT22;18500;43.618;1.474;2024-03-08T20:05:32;8.90;99.90
31975;DHT22;18500;43.618;1.474;2024-03-08T20:08:00;8.90;99.90
31975;DHT22;18500;43.618;1.474;2024-03-08T20:10:39;8.90;99.90
31975;DHT22;18500;43.618;1.474;2024-03-08T20:13:05;8.80;99.90
31975;DHT22;18500;43.618;1.474;2024-03-08T20:15:34;8.70;99.90
31975;DHT22;18500;43.618;1.474;2024-03-08T20:18:03;8.60;99.90
31975;DHT22;18500;43.618;1.474;2024-03-08T20:20:29;8.60;99.90
31975;DHT22;18500;43.618;1.474;2024-03-08T20:22:56;8.50;99.90
31975;DHT22;18500;43.618;1.474;2024-03-08T20:25:22;8.40;99.90
31975;DHT22;18500;43.618;1.474;2024-03-08T20:27:53;8.20;91.70
31975;DHT22;18500;43.618;1.474;2024-03-08T20:30:24;8.10;54.70
31975;DHT22;18500;43.618;1.474;2024-03-08T20:32:51;8.00;27.20
31975;DHT22;18500;43.618;1.474;2024-03-08T20:35:23;8.00;3.60
31975;DHT22;18500;43.618;1.474;2024-03-08T20:37:50;7.90;1.00
31975;DHT22;18500;43.618;1.474;2024-03-08T20:40:16;7.80;1.00
31975;DHT22;18500;43.618;1.474;2024-03-08T20:42:51;7.90;1.00
31975;DHT22;18500;43.618;1.474;2024-03-08T20:45:17;7.90;1.00
31975;DHT22;18500;43.618;1.474;2024-03-08T20:47:43;7.80;1.00
31975;DHT22;18500;43.618;1.474;2024-03-08T20:50:09;7.80;1.00
31975;DHT22;18500;43.618;1.474;2024-03-08T20:52:42;7.80;1.00
31975;DHT22;18500;43.618;1.474;2024-03-08T20:55:12;7.70;1.00
31975;DHT22;18500;43.618;1.474;2024-03-08T20:57:43;7.70;1.00
31975;DHT22;18500;43.618;1.474;2024-03-08T21:00:18;7.70;1.00
31975;DHT22;18500;43.618;1.474;2024-03-08T21:03:10;7.60;1.00
31975;DHT22;18500;43.618;1.474;2024-03-08T21:05:40;7.70;1.00
31975;DHT22;18500;43.618;1.474;2024-03-08T21:08:10;7.60;1.00
31975;DHT22;18500;43.618;1.474;2024-03-08T21:10:45;7.50;1.00
31975;DHT22;18500;43.618;1.474;2024-03-08T21:13:11;7.80;1.00
31975;DHT22;18500;43.618;1.474;2024-03-08T21:15:38;7.80;1.00
31975;DHT22;18500;43.618;1.474;2024-03-08T21:18:08;7.90;1.00
31975;DHT22;18500;43.618;1.474;2024-03-08T21:20:35;7.90;1.00
31975;DHT22;18500;43.618;1.474;2024-03-08T21:23:00;7.90;99.90
31975;DHT22;18500;43.618;1.474;2024-03-08T21:25:29;8.00;99.90
31975;DHT22;18500;43.618;1.474;2024-03-08T21:28:02;7.90;99.90
31975;DHT22;18500;43.618;1.474;2024-03-08T21:30:29;7.90;99.90
31975;DHT22;18500;43.618;1.474;2024-03-08T21:32:56;7.90;99.90
31975;DHT22;18500;43.618;1.474;2024-03-08T21:35:24;7.90;99.90
31975;DHT22;18500;43.618;1.474;2024-03-08T21:37:50;7.90;99.90
31975;DHT22;18500;43.618;1.474;2024-03-08T21:40:18;7.80;99.90
31975;DHT22;18500;43.618;1.474;2024-03-08T21:42:52;7.80;99.90
31975;DHT22;18500;43.618;1.474;2024-03-08T21:45:19;7.70;99.90
31975;DHT22;18500;43.618;1.474;2024-03-08T21:47:48;7.70;99.90
31975;DHT22;18500;43.618;1.474;2024-03-08T21:50:14;7.70;71.80
31975;DHT22;18500;43.618;1.474;2024-03-08T21:52:41;7.70;1.00
31975;DHT22;18500;43.618;1.474;2024-03-08T21:55:07;7.70;1.00
31975;DHT22;18500;43.618;1.474;2024-03-08T21:57:35;7.60;1.00
31975;DHT22;18500;43.618;1.474;2024-03-08T22:00:01;7.70;1.00
31975;DHT22;18500;43.618;1.474;2024-03-08T22:02:27;7.70;1.00
31975;DHT22;18500;43.618;1.474;2024-03-08T22:04:53;7.60;1.00
31975;DHT22;18500;43.618;1.474;2024-03-08T22:07:19;7.60;99.90
31975;DHT22;18500;43.618;1.474;2024-03-08T22:09:44;7.60;99.90
31975;DHT22;18500;43.618;1.474;2024-03-08T22:12:10;7.50;99.90
31975;DHT22;18500;43.618;1.474;2024-03-08T22:14:36;7.60;99.90
31975;DHT22;18500;43.618;1.474;2024-03-08T22:17:02;7.60;99.90
31975;DHT22;18500;43.618;1.474;2024-03-08T22:19:29;7.60;77.60
31975;DHT22;18500;43.618;1.474;2024-03-08T22:21:55;7.60;1.00
31975;DHT22;18500;43.618;1.474;2024-03-08T22:24:20;7.60;1.00
31975;DHT22;18500;43.618;1.474;2024-03-08T22:26:46;7.50;1.00
31975;DHT22;18500;43.618;1.474;2024-03-08T22:29:13;7.40;99.90